createdAt,value
2022-08-18T00:01:14.862Z,6.82
2022-08-18T00:03:56.487Z,7.15
2022-08-18T00:06:28.991Z,6.97
2022-08-18T00:08:58.082Z,6.35
2022-08-18T00:11:24.777Z,6.82
2022-08-18T00:13:51.413Z,6.25
2022-08-18T00:16:17.931Z,6.13
2022-08-18T00:18:47.385Z,7.72
2022-08-18T00:21:13.920Z,7.20
2022-08-18T00:23:40.342Z,6.85
2022-08-18T00:26:06.970Z,7.40
2022-08-18T00:28:33.702Z,6.75
2022-08-18T00:31:00.227Z,6.85
2022-08-18T00:33:26.930Z,5.85
2022-08-18T00:35:53.609Z,4.82
2022-08-18T00:38:23.373Z,4.85
2022-08-18T00:40:54.606Z,4.47
2022-08-18T00:43:49.116Z,4.65
2022-08-18T00:46:20.076Z,4.50
2022-08-18T00:48:48.435Z,3.88
2022-08-18T00:51:27.781Z,4.68
2022-08-18T00:54:08.951Z,4.30
2022-08-18T00:56:43.933Z,4.57
2022-08-18T00:59:48.256Z,4.07
2022-08-18T01:02:22.935Z,4.10
2022-08-18T01:04:57.981Z,3.70
2022-08-18T01:07:39.596Z,3.63
2022-08-18T01:10:06.936Z,4.28
2022-08-18T01:12:33.629Z,3.75
2022-08-18T01:15:28.763Z,3.63
2022-08-18T01:18:21.775Z,3.85
2022-08-18T01:21:22.088Z,3.35
2022-08-18T01:23:51.251Z,3.80
2022-08-18T01:26:19.495Z,3.22
2022-08-18T01:28:47.276Z,3.80
2022-08-18T01:31:32.561Z,3.50
2022-08-18T01:33:59.489Z,3.70
2022-08-18T01:36:26.103Z,3.85
2022-08-18T01:38:53.550Z,3.65
2022-08-18T01:41:29.688Z,4.43
2022-08-18T01:43:59.376Z,4.50
2022-08-18T01:46:31.660Z,4.82
2022-08-18T01:49:00.676Z,4.63
2022-08-18T01:51:38.875Z,4.47
2022-08-18T01:54:38.670Z,4.95
2022-08-18T01:57:14.556Z,5.55
2022-08-18T01:59:42.356Z,4.70
2022-08-18T02:02:15.849Z,5.47
2022-08-18T02:04:45.622Z,5.35
2022-08-18T02:07:14.798Z,5.47
2022-08-18T02:09:43.778Z,5.15
2022-08-18T02:12:10.590Z,5.75
2022-08-18T02:14:37.541Z,6.28
2022-08-18T02:17:07.815Z,6.18
2022-08-18T02:19:42.329Z,6.22
2022-08-18T02:22:10.798Z,7.35
2022-08-18T02:24:37.830Z,6.80
2022-08-18T02:27:04.726Z,6.82
2022-08-18T02:29:31.430Z,6.47
2022-08-18T02:31:57.965Z,7.47
2022-08-18T02:34:25.555Z,6.40
2022-08-18T02:36:52.934Z,6.75
2022-08-18T02:39:19.687Z,7.03
2022-08-18T02:41:46.141Z,7.60
2022-08-18T02:44:12.657Z,7.57
2022-08-18T02:46:39.143Z,6.78
2022-08-18T02:49:07.617Z,7.82
2022-08-18T02:51:34.071Z,7.78
2022-08-18T02:54:00.605Z,8.15
2022-08-18T02:56:40.123Z,7.70
2022-08-18T02:59:11.888Z,8.32
2022-08-18T03:01:41.459Z,8.35
2022-08-18T03:04:10.584Z,8.02
2022-08-18T03:06:39.088Z,7.60
2022-08-18T03:09:08.473Z,8.23
2022-08-18T03:11:36.742Z,7.97
2022-08-18T03:14:05.547Z,9.32
2022-08-18T03:16:33.133Z,9.27
2022-08-18T03:19:03.431Z,8.30
2022-08-18T03:24:01.469Z,9.27
2022-08-18T03:26:31.027Z,8.38
2022-08-18T03:29:00.096Z,8.50
2022-08-18T03:31:29.210Z,11.65
2022-08-18T03:33:59.355Z,8.93
2022-08-18T03:36:31.805Z,9.00
2022-08-18T03:38:59.497Z,8.77
2022-08-18T03:41:30.417Z,8.93
2022-08-18T03:44:17.343Z,9.07
2022-08-18T03:46:44.807Z,8.65
2022-08-18T03:49:11.807Z,9.80
2022-08-18T03:51:38.530Z,9.18
2022-08-18T03:54:05.739Z,9.57
2022-08-18T03:56:35.567Z,8.50
2022-08-18T03:59:09.957Z,11.30
2022-08-18T04:01:39.555Z,10.63
2022-08-18T04:04:10.779Z,9.13
2022-08-18T04:06:42.253Z,9.40
2022-08-18T04:09:15.141Z,11.05
2022-08-18T04:11:47.890Z,9.43
2022-08-18T04:14:18.360Z,9.70
2022-08-18T04:16:45.195Z,9.80
2022-08-18T04:19:13.712Z,9.57
2022-08-18T04:21:42.330Z,10.73
2022-08-18T04:24:12.843Z,9.85
2022-08-18T04:26:45.271Z,9.80
2022-08-18T04:29:14.362Z,10.00
2022-08-18T04:31:43.978Z,10.35
2022-08-18T04:34:12.117Z,8.88
2022-08-18T04:36:39.505Z,9.32
2022-08-18T04:39:08.851Z,8.63
2022-08-18T04:41:37.554Z,9.00
2022-08-18T04:44:07.391Z,10.40
2022-08-18T04:46:42.310Z,11.20
2022-08-18T04:49:10.661Z,9.02
2022-08-18T04:52:26.584Z,9.45
2022-08-18T04:54:28.713Z,10.38
2022-08-18T04:56:55.239Z,10.30
2022-08-18T04:59:21.668Z,9.43
2022-08-18T05:01:53.885Z,9.38
2022-08-18T05:04:20.478Z,10.00
2022-08-18T05:06:47.113Z,10.20
2022-08-18T05:09:22.618Z,10.45
2022-08-18T05:11:51.096Z,10.50
2022-08-18T05:14:18.600Z,9.27
2022-08-18T05:16:48.539Z,9.82
2022-08-18T05:19:23.435Z,10.10
2022-08-18T05:21:59.814Z,10.07
2022-08-18T05:24:33.691Z,10.45
2022-08-18T05:27:05.102Z,10.60
2022-08-18T05:29:37.965Z,10.18
2022-08-18T05:32:09.433Z,9.27
2022-08-18T05:34:36.176Z,9.90
2022-08-18T05:37:35.558Z,9.93
2022-08-18T05:40:11.310Z,9.38
2022-08-18T05:42:43.095Z,11.23
2022-08-18T05:45:17.831Z,10.70
2022-08-18T05:47:45.000Z,10.60
2022-08-18T05:50:17.361Z,11.15
2022-08-18T05:52:53.504Z,11.07
2022-08-18T05:56:09.098Z,12.25
2022-08-18T05:58:44.543Z,11.40
2022-08-18T06:01:22.346Z,12.05
2022-08-18T06:04:32.274Z,11.77
2022-08-18T06:07:03.231Z,11.77
2022-08-18T06:09:39.017Z,12.27
2022-08-18T06:13:00.721Z,12.02
2022-08-18T06:15:36.302Z,12.00
2022-08-18T06:18:27.378Z,12.40
2022-08-18T06:21:36.889Z,12.18
2022-08-18T06:24:08.649Z,11.32
2022-08-18T06:26:57.338Z,10.40
2022-08-18T06:29:34.523Z,10.45
2022-08-18T06:32:11.399Z,10.18
2022-08-18T06:35:08.245Z,9.35
2022-08-18T06:38:13.302Z,10.35
2022-08-18T06:40:40.154Z,10.23
2022-08-18T06:43:15.986Z,10.20
2022-08-18T06:45:50.449Z,9.90
2022-08-18T06:48:50.669Z,10.45
2022-08-18T06:51:21.684Z,9.85
2022-08-18T06:53:58.440Z,9.82
2022-08-18T06:56:42.565Z,9.38
2022-08-18T06:59:32.145Z,10.40
2022-08-18T07:02:20.058Z,10.50
2022-08-18T07:05:19.704Z,11.25
2022-08-18T07:08:10.834Z,9.73
2022-08-18T07:10:44.710Z,10.88
2022-08-18T07:13:18.231Z,9.68
2022-08-18T07:15:45.879Z,9.95
2022-08-18T07:18:13.660Z,10.88
2022-08-18T07:20:54.963Z,10.02
2022-08-18T07:23:29.055Z,9.98
2022-08-18T07:26:06.940Z,9.70
2022-08-18T07:28:48.222Z,9.35
2022-08-18T07:31:27.036Z,9.60
2022-08-18T07:34:33.869Z,8.73
2022-08-18T07:37:12.435Z,8.10
2022-08-18T07:43:06.322Z,8.48
2022-08-18T07:45:42.475Z,9.90
2022-08-18T07:48:40.162Z,8.60
2022-08-18T07:51:25.231Z,8.85
2022-08-18T07:54:49.719Z,8.85
2022-08-18T07:57:42.337Z,8.40
2022-08-18T08:00:57.706Z,8.70
2022-08-18T08:03:58.858Z,7.97
2022-08-18T08:07:23.046Z,8.55
2022-08-18T08:10:11.565Z,8.02
2022-08-18T08:13:09.190Z,8.88
2022-08-18T08:16:18.964Z,7.75
2022-08-18T08:19:59.068Z,8.00
2022-08-18T08:22:43.019Z,8.63
2022-08-18T08:25:45.149Z,8.13
2022-08-18T08:33:08.539Z,7.78
2022-08-18T08:35:50.890Z,8.10
2022-08-18T08:39:11.998Z,6.57
2022-08-18T08:42:30.214Z,6.38
2022-08-18T08:45:08.708Z,6.72
2022-08-18T08:47:49.742Z,6.72
2022-08-18T08:50:32.015Z,6.50
2022-08-18T08:53:23.441Z,6.65
2022-08-18T08:56:02.458Z,6.05
2022-08-18T09:03:32.069Z,6.82
2022-08-18T09:06:45.121Z,6.00
2022-08-18T09:09:24.085Z,5.20
2022-08-18T09:12:07.474Z,6.50
2022-08-18T09:15:09.959Z,6.55
2022-08-18T09:17:55.961Z,7.25
2022-08-18T09:20:51.764Z,6.60
2022-08-18T09:23:22.709Z,6.30
2022-08-18T09:25:53.877Z,7.05
2022-08-18T09:28:23.465Z,6.78
2022-08-18T09:33:41.989Z,6.45
2022-08-18T09:36:40.213Z,6.65
2022-08-18T09:39:54.386Z,6.50
2022-08-18T09:45:33.738Z,7.13
2022-08-18T09:48:25.486Z,6.28
2022-08-18T09:51:20.951Z,6.30
2022-08-18T09:54:09.805Z,6.82
2022-08-18T10:00:03.833Z,5.95
2022-08-18T10:02:36.995Z,6.57
2022-08-18T10:05:15.865Z,5.75
2022-08-18T10:07:50.167Z,6.90
2022-08-18T10:10:59.216Z,6.32
2022-08-18T10:13:33.233Z,6.00
2022-08-18T10:16:11.488Z,6.47
2022-08-18T10:18:47.160Z,5.75
2022-08-18T10:24:32.292Z,5.88
2022-08-18T10:26:55.406Z,5.78
2022-08-18T10:29:25.909Z,6.15
2022-08-18T10:32:07.278Z,5.90
2022-08-18T10:34:58.923Z,6.05
2022-08-18T10:37:57.915Z,5.97
2022-08-18T10:40:26.493Z,5.63
2022-08-18T10:49:07.549Z,6.22
2022-08-18T10:52:00.480Z,5.80
2022-08-18T10:55:10.312Z,5.60
2022-08-18T10:58:06.432Z,6.47
2022-08-18T11:00:48.477Z,5.80
2022-08-18T11:06:27.400Z,5.45
2022-08-18T11:08:58.931Z,6.18
2022-08-18T11:11:52.521Z,5.53
2022-08-18T11:14:58.426Z,4.90
2022-08-18T11:17:31.481Z,5.35
2022-08-18T11:20:00.526Z,5.68
2022-08-18T11:22:34.098Z,5.40
2022-08-18T11:25:03.279Z,5.45
2022-08-18T11:27:36.577Z,5.00
2022-08-18T11:30:06.486Z,6.05
2022-08-18T11:32:39.607Z,5.88
2022-08-18T11:35:27.793Z,5.70
2022-08-18T11:38:00.669Z,4.82
2022-08-18T11:46:34.643Z,6.22
2022-08-18T11:49:26.417Z,5.80
2022-08-18T11:52:03.004Z,6.03
2022-08-18T11:54:39.405Z,5.35
2022-08-18T11:57:54.391Z,5.78
2022-08-18T12:00:57.183Z,5.63
2022-08-18T12:03:41.549Z,5.50
2022-08-18T12:06:27.103Z,4.70
2022-08-18T12:09:19.984Z,5.93
2022-08-18T12:12:28.416Z,5.47
2022-08-18T12:15:25.273Z,5.85
2022-08-18T12:17:56.258Z,5.93
2022-08-18T12:20:22.985Z,6.43
2022-08-18T12:22:50.411Z,5.25
2022-08-18T12:25:25.462Z,5.38
2022-08-18T12:27:53.572Z,5.70
2022-08-18T12:30:20.307Z,5.28
2022-08-18T12:32:49.560Z,5.13
2022-08-18T12:35:21.993Z,5.72
2022-08-18T12:40:35.804Z,5.70
2022-08-18T12:43:02.513Z,5.97
2022-08-18T12:45:31.162Z,5.70
2022-08-18T12:47:59.618Z,5.00
2022-08-18T12:50:31.458Z,6.00
2022-08-18T12:52:59.276Z,5.47
2022-08-18T12:55:28.091Z,5.20
2022-08-18T12:57:55.101Z,5.43
2022-08-18T13:00:29.260Z,5.55
2022-08-18T13:02:57.410Z,6.15
2022-08-18T13:05:26.291Z,5.82
2022-08-18T13:08:04.422Z,5.55
2022-08-18T13:10:43.226Z,5.82
2022-08-18T13:13:17.402Z,6.10
2022-08-18T13:15:58.103Z,5.95
2022-08-18T13:18:29.136Z,5.88
2022-08-18T13:20:58.568Z,6.03
2022-08-18T13:23:27.435Z,5.47
2022-08-18T13:26:01.513Z,5.22
2022-08-18T13:28:35.613Z,6.13
2022-08-18T13:31:05.538Z,5.78
2022-08-18T13:33:35.329Z,5.80
2022-08-18T13:36:19.783Z,5.65
2022-08-18T13:38:46.423Z,5.75
2022-08-18T13:41:15.614Z,5.85
2022-08-18T13:43:44.627Z,5.70
2022-08-18T13:46:17.210Z,6.05
2022-08-18T13:48:45.945Z,6.30
2022-08-18T13:51:20.447Z,5.45
2022-08-18T13:53:58.995Z,5.63
2022-08-18T13:56:35.286Z,6.60
2022-08-18T13:59:06.731Z,5.93
2022-08-18T14:01:44.588Z,5.70
2022-08-18T14:04:20.964Z,5.50
2022-08-18T14:06:56.887Z,5.50
2022-08-18T14:09:27.668Z,5.20
2022-08-18T14:12:21.594Z,5.57
2022-08-18T14:14:52.827Z,5.60
2022-08-18T14:17:22.614Z,5.47
2022-08-18T14:20:10.231Z,5.72
2022-08-18T14:22:55.868Z,6.35
2022-08-18T14:25:41.396Z,5.55
2022-08-18T14:28:12.890Z,5.82
2022-08-18T14:30:40.146Z,5.70
2022-08-18T14:33:11.758Z,5.28
2022-08-18T14:36:06.431Z,5.47
2022-08-18T14:38:26.595Z,6.22
2022-08-18T14:40:53.258Z,6.45
2022-08-18T14:43:21.915Z,5.75
2022-08-18T14:45:53.724Z,5.55
2022-08-18T14:48:26.909Z,6.00
2022-08-18T14:50:55.958Z,5.68
2022-08-18T14:53:26.880Z,5.57
2022-08-18T14:55:54.916Z,5.70
2022-08-18T14:58:27.803Z,5.70
2022-08-18T15:00:56.695Z,6.00
2022-08-18T15:03:28.399Z,5.70
2022-08-18T15:06:04.870Z,5.70
2022-08-18T15:08:34.426Z,6.05
2022-08-18T15:11:03.900Z,6.25
2022-08-18T15:13:30.657Z,5.13
2022-08-18T15:16:01.906Z,5.68
2022-08-18T15:18:29.263Z,5.15
2022-08-18T15:21:19.717Z,5.95
2022-08-18T15:24:20.467Z,5.82
2022-08-18T15:26:51.477Z,5.53
2022-08-18T15:29:18.756Z,5.70
2022-08-18T15:31:50.791Z,5.75
2022-08-18T15:34:20.767Z,5.90
2022-08-18T15:36:50.798Z,5.57
2022-08-18T15:39:17.486Z,5.55
2022-08-18T15:41:48.837Z,5.85
2022-08-18T15:44:19.911Z,5.45
2022-08-18T15:46:53.117Z,5.97
2022-08-18T15:49:24.824Z,5.80
2022-08-18T15:51:53.584Z,5.68
2022-08-18T15:54:26.204Z,5.50
2022-08-18T15:59:47.277Z,5.10
2022-08-18T16:03:04.852Z,5.65
2022-08-18T16:05:41.308Z,5.35
2022-08-18T16:08:20.136Z,5.53
2022-08-18T16:11:29.567Z,5.60
2022-08-18T16:14:23.443Z,5.88
2022-08-18T16:16:51.018Z,5.45
2022-08-18T16:19:18.066Z,5.45
2022-08-18T16:21:49.850Z,5.03
2022-08-18T16:24:21.114Z,5.47
2022-08-18T16:27:10.338Z,5.85
2022-08-18T16:29:43.012Z,5.38
2022-08-18T16:32:19.964Z,5.40
2022-08-18T16:34:54.510Z,5.85
2022-08-18T16:37:29.967Z,4.97
2022-08-18T16:46:53.901Z,6.03
2022-08-18T16:50:53.839Z,5.93
2022-08-18T16:53:24.235Z,5.20
2022-08-18T17:02:43.052Z,5.68
2022-08-18T17:05:17.424Z,5.25
2022-08-18T17:07:44.390Z,5.40
2022-08-18T17:10:13.899Z,5.22
2022-08-18T17:12:40.672Z,5.40
2022-08-18T17:15:10.821Z,5.85
2022-08-18T17:17:37.398Z,6.63
2022-08-18T17:20:11.212Z,5.05
2022-08-18T17:22:38.354Z,5.53
2022-08-18T17:25:07.342Z,5.93
2022-08-18T17:27:41.787Z,5.72
2022-08-18T17:30:20.353Z,6.07
2022-08-18T17:33:01.268Z,5.82
2022-08-18T17:35:40.188Z,5.68
2022-08-18T17:38:14.921Z,5.77
2022-08-18T17:40:54.423Z,6.22
2022-08-18T17:46:16.835Z,5.60
2022-08-18T17:48:55.126Z,6.25
2022-08-18T17:51:52.663Z,6.07
2022-08-18T17:54:47.286Z,6.03
2022-08-18T17:57:32.602Z,6.38
2022-08-18T18:00:07.630Z,5.93
2022-08-18T18:02:34.489Z,6.25
2022-08-18T18:05:03.911Z,6.53
2022-08-18T18:07:52.121Z,5.85
2022-08-18T18:13:34.030Z,7.07
2022-08-18T18:16:23.400Z,8.05
2022-08-18T18:19:02.857Z,8.27
2022-08-18T18:21:57.557Z,8.82
2022-08-18T18:24:28.667Z,7.88
2022-08-18T18:26:58.381Z,8.95
2022-08-18T18:29:32.273Z,8.70
2022-08-18T18:32:29.151Z,9.18
2022-08-18T18:35:43.057Z,8.60
2022-08-18T18:38:30.052Z,9.00
2022-08-18T18:41:06.977Z,9.20
2022-08-18T18:43:46.194Z,8.82
2022-08-18T18:46:18.026Z,8.43
2022-08-18T18:49:04.077Z,9.20
2022-08-18T18:51:56.591Z,15.00
2022-08-18T18:54:39.098Z,11.15
2022-08-18T18:57:14.283Z,10.43
2022-08-18T19:00:01.001Z,9.07
2022-08-18T19:02:47.060Z,10.13
2022-08-18T19:05:39.230Z,9.57
2022-08-18T19:08:24.579Z,9.40
2022-08-18T19:10:57.289Z,9.10
2022-08-18T19:13:32.978Z,9.52
2022-08-18T19:16:27.937Z,9.13
2022-08-18T19:19:37.773Z,9.70
2022-08-18T19:22:04.633Z,8.98
2022-08-18T19:24:43.415Z,9.82
2022-08-18T19:27:27.717Z,9.43
2022-08-18T19:30:03.635Z,8.35
2022-08-18T19:32:42.987Z,9.05
2022-08-18T19:35:16.181Z,8.98
2022-08-18T19:38:12.061Z,8.80
2022-08-18T19:40:52.995Z,8.80
2022-08-18T19:43:53.270Z,7.95
2022-08-18T19:46:41.933Z,8.23
2022-08-18T19:49:24.006Z,9.10
2022-08-18T19:51:59.144Z,7.43
2022-08-18T19:55:11.979Z,7.95
2022-08-18T19:57:57.594Z,7.00
2022-08-18T20:01:10.431Z,7.65
2022-08-18T20:04:20.428Z,7.18
2022-08-18T20:07:10.523Z,7.32
2022-08-18T20:10:08.373Z,7.07
2022-08-18T20:13:00.146Z,7.50
2022-08-18T20:15:31.896Z,7.75
2022-08-18T20:18:06.085Z,7.47
2022-08-18T20:20:39.747Z,7.40
2022-08-18T20:23:35.194Z,7.95
2022-08-18T20:26:02.095Z,7.57
2022-08-18T20:28:40.078Z,7.55
2022-08-18T20:31:14.296Z,8.27
2022-08-18T20:33:47.063Z,7.47
2022-08-18T20:36:27.436Z,6.78
2022-08-18T20:39:00.042Z,7.60
2022-08-18T20:41:27.695Z,7.25
2022-08-18T20:44:29.956Z,7.47
2022-08-18T20:47:05.479Z,7.25
2022-08-18T20:49:54.002Z,7.60
2022-08-18T20:52:39.606Z,8.18
2022-08-18T20:55:30.658Z,8.43
2022-08-18T20:58:03.588Z,7.85
2022-08-18T21:00:30.684Z,8.52
2022-08-18T21:02:59.629Z,7.93
2022-08-18T21:05:37.146Z,8.35
2022-08-18T21:08:19.868Z,8.50
2022-08-18T21:10:53.567Z,7.70
2022-08-18T21:13:46.000Z,8.30
2022-08-18T21:16:42.544Z,9.82
2022-08-18T21:19:26.282Z,8.85
2022-08-18T21:21:56.898Z,9.10
2022-08-18T21:24:40.940Z,11.30
2022-08-18T21:27:33.973Z,10.85
2022-08-18T21:30:04.147Z,11.90
2022-08-18T21:32:33.571Z,11.98
2022-08-18T21:35:24.006Z,11.88
2022-08-18T21:38:05.568Z,12.20
2022-08-18T21:40:39.415Z,13.63
2022-08-18T21:43:08.418Z,13.50
2022-08-18T21:45:48.181Z,14.13
2022-08-18T21:48:15.094Z,12.50
2022-08-18T21:50:51.404Z,13.35
2022-08-18T21:53:23.916Z,13.07
2022-08-18T21:55:56.256Z,12.95
2022-08-18T21:58:40.781Z,16.05
2022-08-18T22:01:12.461Z,15.68
2022-08-18T22:03:56.160Z,13.77
2022-08-18T22:06:30.086Z,14.93
2022-08-18T22:08:59.168Z,16.70
2022-08-18T22:12:00.754Z,15.23
2022-08-18T22:14:30.453Z,15.75
2022-08-18T22:17:50.735Z,17.23
2022-08-18T22:20:47.631Z,15.73
2022-08-18T22:23:32.823Z,17.40
2022-08-18T22:26:26.969Z,17.58
2022-08-18T22:29:31.358Z,17.77
2022-08-18T22:31:58.791Z,16.60
2022-08-18T22:34:29.008Z,16.75
2022-08-18T22:37:14.542Z,17.60
2022-08-18T22:39:51.588Z,17.45
2022-08-18T22:42:22.470Z,19.52
2022-08-18T22:44:49.505Z,16.30
2022-08-18T22:47:16.866Z,17.55
2022-08-18T22:49:45.195Z,16.85
2022-08-18T22:52:29.898Z,17.17
2022-08-18T22:54:58.382Z,17.27
2022-08-18T22:57:25.439Z,16.30
2022-08-18T22:59:52.695Z,16.05
2022-08-18T23:02:21.893Z,17.17
2022-08-18T23:04:49.002Z,18.73
2022-08-18T23:07:17.281Z,19.10
2022-08-18T23:09:43.925Z,18.58
2022-08-18T23:12:13.727Z,18.77
2022-08-18T23:14:44.402Z,17.45
2022-08-18T23:17:11.614Z,16.65
2022-08-18T23:19:40.617Z,17.08
2022-08-18T23:22:09.085Z,17.90
2022-08-18T23:24:40.141Z,18.50
2022-08-18T23:27:08.064Z,18.35
2022-08-18T23:29:36.726Z,17.95
2022-08-18T23:32:05.790Z,20.15
2022-08-18T23:34:33.917Z,19.90
2022-08-18T23:37:01.789Z,20.08
2022-08-18T23:39:30.290Z,18.92
2022-08-18T23:41:57.320Z,19.90
2022-08-18T23:44:27.744Z,18.73
2022-08-18T23:46:55.956Z,19.38
2022-08-18T23:49:23.402Z,20.40
2022-08-18T23:51:54.209Z,20.45
2022-08-18T23:54:24.875Z,20.42
2022-08-18T23:56:51.478Z,21.35
2022-08-18T23:59:20.370Z,21.02
